Time,TemperatureF,DewpointF,PressureIn,WindDirection,WindDirectionDegrees,WindSpeedMPH,WindSpeedGustMPH,Humidity,HourlyPrecipIn,Conditions,Clouds,dailyrainin,SoftwareType,DateUTC
2013-01-12 00:02:00,37.0,35.0,29.47,North,-999,0.0,-999.0,92,-99.99,,,-99.99,,2013-01-12 06:02:00,
2013-01-12 00:12:00,37.0,35.0,29.47,North,-999,0.0,-999.0,92,-99.99,,,-99.99,,2013-01-12 06:12:00,
2013-01-12 00:22:00,37.0,35.0,29.47,North,-999,0.0,-999.0,92,-99.99,,,-99.99,,2013-01-12 06:22:00,
2013-01-12 00:32:00,36.0,34.0,29.47,North,-999,0.0,-999.0,92,-99.99,,,-99.99,,2013-01-12 06:32:00,
2013-01-12 00:42:00,36.0,34.0,29.47,North,-999,0.0,-999.0,92,-99.99,,,-99.99,,2013-01-12 06:42:00,
2013-01-12 00:52:00,36.0,34.0,29.47,North,-999,0.0,-999.0,92,-99.99,,,-99.99,,2013-01-12 06:52:00,
2013-01-12 01:02:00,36.0,34.0,29.47,North,-999,0.0,-999.0,92,-99.99,,,-99.99,,2013-01-12 07:02:00,
2013-01-12 01:12:00,36.0,34.0,29.47,North,-999,0.0,-999.0,92,-99.99,,,-99.99,,2013-01-12 07:12:00,
2013-01-12 01:22:00,36.0,34.0,29.47,North,-999,0.0,-999.0,92,-99.99,,,-99.99,,2013-01-12 07:22:00,
2013-01-12 01:32:00,34.0,32.0,29.51,North,-999,0.0,-999.0,92,-99.99,,,-99.99,,2013-01-12 07:32:00,
2013-01-12 01:42:00,34.0,32.0,29.51,North,-999,0.0,-999.0,92,-99.99,,,-99.99,,2013-01-12 07:42:00,
2013-01-12 01:52:00,34.0,32.0,29.51,North,-999,0.0,-999.0,92,-99.99,,,-99.99,,2013-01-12 07:52:00,
2013-01-12 02:02:00,30.0,27.0,29.54,North,-999,0.0,-999.0,89,-99.99,,,-99.99,,2013-01-12 08:02:00,
2013-01-12 02:11:00,30.0,27.0,29.54,North,-999,0.0,-999.0,89,-99.99,,,-99.99,,2013-01-12 08:11:00,
2013-01-12 02:22:00,28.0,25.0,29.55,North,-999,0.0,-999.0,88,-99.99,,,-99.99,,2013-01-12 08:22:00,
2013-01-12 02:32:00,25.0,21.0,29.57,North,-999,0.0,-999.0,86,-99.99,,,-99.99,,2013-01-12 08:32:00,
2013-01-12 02:42:00,25.0,21.0,29.57,North,-999,0.0,-999.0,86,-99.99,,,-99.99,,2013-01-12 08:42:00,
2013-01-12 02:52:00,24.0,20.0,29.59,North,-999,0.0,-999.0,86,-99.99,,,-99.99,,2013-01-12 08:52:00,
2013-01-12 03:02:00,23.0,19.0,29.60,North,-999,0.0,-999.0,86,-99.99,,,-99.99,,2013-01-12 09:02:00,
2013-01-12 03:12:00,23.0,19.0,29.60,North,-999,0.0,-999.0,86,-99.99,,,-99.99,,2013-01-12 09:12:00,
2013-01-12 03:22:00,22.0,18.0,29.61,North,-999,0.0,-999.0,86,-99.99,,,-99.99,,2013-01-12 09:22:00,
2013-01-12 03:32:00,21.0,17.0,29.64,North,-999,0.0,-999.0,85,-99.99,,,-99.99,,2013-01-12 09:32:00,
2013-01-12 03:42:00,21.0,17.0,29.64,North,-999,0.0,-999.0,85,-99.99,,,-99.99,,2013-01-12 09:42:00,
2013-01-12 03:52:00,20.0,16.0,29.64,North,-999,0.0,-999.0,85,-99.99,,,-99.99,,2013-01-12 09:52:00,
2013-01-12 04:02:00,20.0,15.0,29.65,North,-999,0.0,-999.0,82,-99.99,,,-99.99,,2013-01-12 10:02:00,
2013-01-12 04:12:00,20.0,15.0,29.65,North,-999,0.0,-999.0,82,-99.99,,,-99.99,,2013-01-12 10:12:00,
2013-01-12 04:22:00,20.0,15.0,29.67,North,-999,0.0,-999.0,81,-99.99,,,-99.99,,2013-01-12 10:22:00,
2013-01-12 04:32:00,20.0,16.0,29.68,North,-999,0.0,-999.0,83,-99.99,,,-99.99,,2013-01-12 10:32:00,
2013-01-12 04:42:00,20.0,16.0,29.68,North,-999,0.0,-999.0,83,-99.99,,,-99.99,,2013-01-12 10:42:00,
2013-01-12 04:52:00,19.0,14.0,29.69,North,-999,0.0,-999.0,81,-99.99,,,-99.99,,2013-01-12 10:52:00,
2013-01-12 05:02:00,18.0,13.0,29.70,North,-999,0.0,-999.0,80,-99.99,,,-99.99,,2013-01-12 11:02:00,
2013-01-12 05:12:00,18.0,13.0,29.70,North,-999,0.0,-999.0,80,-99.99,,,-99.99,,2013-01-12 11:12:00,
2013-01-12 05:22:00,18.0,13.0,29.70,North,-999,0.0,-999.0,80,-99.99,,,-99.99,,2013-01-12 11:22:00,
2013-01-12 05:32:00,17.0,12.0,29.72,North,-999,0.0,-999.0,81,-99.99,,,-99.99,,2013-01-12 11:32:00,
2013-01-12 05:42:00,17.0,12.0,29.72,North,-999,0.0,-999.0,81,-99.99,,,-99.99,,2013-01-12 11:42:00,
2013-01-12 05:53:00,17.0,12.0,29.74,North,-999,0.0,-999.0,82,-99.99,,,-99.99,,2013-01-12 11:53:00,
2013-01-12 06:03:00,17.0,12.0,29.75,North,-999,0.0,-999.0,79,-99.99,,,-99.99,,2013-01-12 12:03:00,
2013-01-12 06:12:00,17.0,12.0,29.75,North,-999,0.0,-999.0,79,-99.99,,,-99.99,,2013-01-12 12:12:00,
2013-01-12 06:22:00,16.0,10.0,29.76,North,-999,0.0,-999.0,78,-99.99,,,-99.99,,2013-01-12 12:22:00,
2013-01-12 06:32:00,16.0,10.0,29.78,North,-999,0.0,-999.0,77,-99.99,,,-99.99,,2013-01-12 12:32:00,
2013-01-12 06:42:00,16.0,10.0,29.78,North,-999,0.0,-999.0,77,-99.99,,,-99.99,,2013-01-12 12:42:00,
2013-01-12 06:52:00,16.0,11.0,29.80,North,-999,0.0,-999.0,79,-99.99,,,-99.99,,2013-01-12 12:52:00,
2013-01-12 07:02:00,15.0,9.0,29.80,North,-999,0.0,-999.0,77,-99.99,,,-99.99,,2013-01-12 13:02:00,
2013-01-12 07:12:00,15.0,9.0,29.80,North,-999,0.0,-999.0,77,-99.99,,,-99.99,,2013-01-12 13:12:00,
2013-01-12 07:22:00,15.0,9.0,29.83,North,-999,0.0,-999.0,78,-99.99,,,-99.99,,2013-01-12 13:22:00,
2013-01-12 07:33:00,15.0,9.0,29.84,North,-999,0.0,-999.0,77,-99.99,,,-99.99,,2013-01-12 13:33:00,
2013-01-12 07:42:00,15.0,9.0,29.84,North,-999,0.0,-999.0,77,-99.99,,,-99.99,,2013-01-12 13:42:00,
2013-01-12 07:52:00,15.0,9.0,29.85,North,-999,0.0,-999.0,75,-99.99,,,-99.99,,2013-01-12 13:52:00,
2013-01-12 08:02:00,14.0,8.0,29.87,North,-999,0.0,-999.0,76,-99.99,,,-99.99,,2013-01-12 14:02:00,
2013-01-12 08:12:00,14.0,8.0,29.87,North,-999,0.0,-999.0,76,-99.99,,,-99.99,,2013-01-12 14:12:00,
2013-01-12 08:22:00,14.0,8.0,29.87,North,-999,0.0,-999.0,75,-99.99,,,-99.99,,2013-01-12 14:22:00,
2013-01-12 08:33:00,14.0,8.0,29.90,North,-999,0.0,-999.0,75,-99.99,,,-99.99,,2013-01-12 14:33:00,
2013-01-12 08:43:00,14.0,8.0,29.90,North,-999,0.0,-999.0,75,-99.99,,,-99.99,,2013-01-12 14:43:00,
2013-01-12 08:53:00,14.0,9.0,29.90,North,-999,0.0,-999.0,80,-99.99,,,-99.99,,2013-01-12 14:53:00,
2013-01-12 09:03:00,13.0,7.0,29.92,North,-999,0.0,-999.0,77,-99.99,,,-99.99,,2013-01-12 15:03:00,
2013-01-12 09:12:00,13.0,7.0,29.92,North,-999,0.0,-999.0,77,-99.99,,,-99.99,,2013-01-12 15:12:00,
2013-01-12 09:22:00,12.0,6.0,29.92,North,-999,0.0,-999.0,76,-99.99,,,-99.99,,2013-01-12 15:22:00,
2013-01-12 09:33:00,12.0,6.0,29.92,North,-999,0.0,-999.0,76,-99.99,,,-99.99,,2013-01-12 15:33:00,
2013-01-12 09:43:00,12.0,6.0,29.92,North,-999,0.0,-999.0,76,-99.99,,,-99.99,,2013-01-12 15:43:00,
2013-01-12 09:53:00,12.0,6.0,29.95,North,-999,0.0,-999.0,75,-99.99,,,-99.99,,2013-01-12 15:53:00,
2013-01-12 10:03:00,12.0,6.0,29.95,North,-999,0.0,-999.0,75,-99.99,,,-99.99,,2013-01-12 16:03:00,
2013-01-12 10:12:00,12.0,6.0,29.95,North,-999,0.0,-999.0,75,-99.99,,,-99.99,,2013-01-12 16:12:00,
2013-01-12 10:23:00,12.0,6.0,29.97,North,-999,0.0,-999.0,76,-99.99,,,-99.99,,2013-01-12 16:23:00,
2013-01-12 10:33:00,12.0,6.0,29.99,North,-999,0.0,-999.0,75,-99.99,,,-99.99,,2013-01-12 16:33:00,
2013-01-12 10:42:00,12.0,6.0,29.99,North,-999,0.0,-999.0,75,-99.99,,,-99.99,,2013-01-12 16:42:00,
2013-01-12 10:52:00,12.0,6.0,29.99,North,-999,0.0,-999.0,75,-99.99,,,-99.99,,2013-01-12 16:52:00,
2013-01-12 11:02:00,12.0,6.0,30.00,North,-999,0.0,-999.0,76,-99.99,,,-99.99,,2013-01-12 17:02:00,
2013-01-12 11:12:00,12.0,6.0,30.00,North,-999,0.0,-999.0,76,-99.99,,,-99.99,,2013-01-12 17:12:00,
2013-01-12 11:22:00,11.0,5.0,30.01,North,-999,0.0,-999.0,75,-99.99,,,-99.99,,2013-01-12 17:22:00,
2013-01-12 11:33:00,11.0,4.0,30.01,North,-999,0.0,-999.0,73,-99.99,,,-99.99,,2013-01-12 17:33:00,
2013-01-12 11:42:00,11.0,4.0,30.01,North,-999,0.0,-999.0,73,-99.99,,,-99.99,,2013-01-12 17:42:00,
2013-01-12 11:53:00,11.0,4.0,30.03,North,-999,0.0,-999.0,73,-99.99,,,-99.99,,2013-01-12 17:53:00,
2013-01-12 12:03:00,10.0,3.0,30.02,North,-999,0.0,-999.0,73,-99.99,,,-99.99,,2013-01-12 18:03:00,
2013-01-12 12:12:00,10.0,3.0,30.02,North,-999,0.0,-999.0,73,-99.99,,,-99.99,,2013-01-12 18:12:00,
2013-01-12 12:22:00,12.0,5.0,30.02,North,-999,0.0,-999.0,74,-99.99,,,-99.99,,2013-01-12 18:22:00,
2013-01-12 12:33:00,12.0,5.0,30.02,North,-999,0.0,-999.0,72,-99.99,,,-99.99,,2013-01-12 18:33:00,
2013-01-12 12:42:00,12.0,5.0,30.02,North,-999,0.0,-999.0,72,-99.99,,,-99.99,,2013-01-12 18:42:00,
2013-01-12 12:52:00,11.0,4.0,30.03,North,-999,0.0,-999.0,72,-99.99,,,-99.99,,2013-01-12 18:52:00,
2013-01-12 13:03:00,11.0,3.0,30.03,North,-999,0.0,-999.0,71,-99.99,,,-99.99,,2013-01-12 19:03:00,
2013-01-12 13:12:00,11.0,3.0,30.03,North,-999,0.0,-999.0,71,-99.99,,,-99.99,,2013-01-12 19:12:00,
2013-01-12 13:23:00,12.0,4.0,30.03,North,-999,0.0,-999.0,70,-99.99,,,-99.99,,2013-01-12 19:23:00,
2013-01-12 13:33:00,12.0,4.0,30.04,North,-999,0.0,-999.0,70,-99.99,,,-99.99,,2013-01-12 19:33:00,
2013-01-12 13:43:00,12.0,4.0,30.04,North,-999,0.0,-999.0,70,-99.99,,,-99.99,,2013-01-12 19:43:00,
2013-01-12 13:52:00,11.0,3.0,30.05,North,-999,0.0,-999.0,71,-99.99,,,-99.99,,2013-01-12 19:52:00,
2013-01-12 14:03:00,11.0,3.0,30.07,North,-999,0.0,-999.0,71,-99.99,,,-99.99,,2013-01-12 20:03:00,
2013-01-12 14:12:00,11.0,3.0,30.07,North,-999,0.0,-999.0,70,-99.99,,,-99.99,,2013-01-12 20:12:00,
2013-01-12 14:22:00,11.0,3.0,30.07,North,-999,0.0,-999.0,70,-99.99,,,-99.99,,2013-01-12 20:22:00,
2013-01-12 14:33:00,11.0,3.0,30.09,North,-999,0.0,-999.0,70,-99.99,,,-99.99,,2013-01-12 20:33:00,
2013-01-12 14:42:00,11.0,3.0,30.09,North,-999,0.0,-999.0,70,-99.99,,,-99.99,,2013-01-12 20:42:00,
2013-01-12 14:53:00,11.0,3.0,30.08,North,-999,0.0,-999.0,70,-99.99,,,-99.99,,2013-01-12 20:53:00,
2013-01-12 15:03:00,11.0,3.0,30.09,North,-999,0.0,-999.0,69,-99.99,,,-99.99,,2013-01-12 21:03:00,
2013-01-12 15:12:00,11.0,3.0,30.11,North,-999,0.0,-999.0,68,-99.99,,,-99.99,,2013-01-12 21:12:00,
2013-01-12 15:22:00,11.0,3.0,30.11,North,-999,0.0,-999.0,68,-99.99,,,-99.99,,2013-01-12 21:22:00,
2013-01-12 15:33:00,11.0,3.0,30.11,North,-999,0.0,-999.0,68,-99.99,,,-99.99,,2013-01-12 21:33:00,
2013-01-12 15:42:00,11.0,3.0,30.11,North,-999,0.0,-999.0,68,-99.99,,,-99.99,,2013-01-12 21:42:00,
2013-01-12 15:52:00,10.0,3.0,30.10,North,-999,0.0,-999.0,71,-99.99,,,-99.99,,2013-01-12 21:52:00,
2013-01-12 16:03:00,10.0,3.0,30.10,North,-999,0.0,-999.0,73,-99.99,,,-99.99,,2013-01-12 22:03:00,
2013-01-12 16:12:00,10.0,3.0,30.10,North,-999,0.0,-999.0,73,-99.99,,,-99.99,,2013-01-12 22:12:00,
2013-01-12 16:22:00,9.0,1.0,30.10,North,-999,0.0,-999.0,69,-99.99,,,-99.99,,2013-01-12 22:22:00,
2013-01-12 16:33:00,9.0,2.0,30.09,North,-999,0.0,-999.0,72,-99.99,,,-99.99,,2013-01-12 22:33:00,
2013-01-12 16:43:00,9.0,2.0,30.09,North,-999,0.0,-999.0,72,-99.99,,,-99.99,,2013-01-12 22:43:00,
2013-01-12 16:52:00,9.0,2.0,30.11,North,-999,0.0,-999.0,73,-99.99,,,-99.99,,2013-01-12 22:52:00,
2013-01-12 17:03:00,9.0,2.0,30.12,North,-999,0.0,-999.0,71,-99.99,,,-99.99,,2013-01-12 23:03:00,
2013-01-12 17:12:00,8.0,1.0,30.13,North,-999,0.0,-999.0,72,-99.99,,,-99.99,,2013-01-12 23:12:00,
2013-01-12 17:22:00,8.0,1.0,30.13,North,-999,0.0,-999.0,72,-99.99,,,-99.99,,2013-01-12 23:22:00,
2013-01-12 17:33:00,8.0,1.0,30.15,North,-999,0.0,-999.0,73,-99.99,,,-99.99,,2013-01-12 23:33:00,
2013-01-12 17:42:00,8.0,1.0,30.15,North,-999,0.0,-999.0,73,-99.99,,,-99.99,,2013-01-12 23:42:00,
2013-01-12 17:53:00,8.0,1.0,30.16,North,-999,0.0,-999.0,73,-99.99,,,-99.99,,2013-01-12 23:53:00,
2013-01-12 18:03:00,7.0,0.0,30.16,North,-999,0.0,-999.0,73,-99.99,,,-99.99,,2013-01-13 00:03:00,
2013-01-12 18:12:00,7.0,0.0,30.16,North,-999,0.0,-999.0,73,-99.99,,,-99.99,,2013-01-13 00:12:00,
2013-01-12 18:22:00,7.0,0.0,30.16,North,-999,0.0,-999.0,73,-99.99,,,-99.99,,2013-01-13 00:22:00,
2013-01-12 18:33:00,7.0,0.0,30.16,North,-999,0.0,-999.0,73,-99.99,,,-99.99,,2013-01-13 00:33:00,
2013-01-12 18:42:00,7.0,0.0,30.16,North,-999,0.0,-999.0,73,-99.99,,,-99.99,,2013-01-13 00:42:00,
2013-01-12 18:52:00,7.0,0.0,30.15,North,-999,0.0,-999.0,73,-99.99,,,-99.99,,2013-01-13 00:52:00,
2013-01-12 19:02:00,7.0,1.0,30.15,North,-999,0.0,-999.0,75,-99.99,,,-99.99,,2013-01-13 01:02:00,
2013-01-12 19:12:00,7.0,1.0,30.15,North,-999,0.0,-999.0,75,-99.99,,,-99.99,,2013-01-13 01:12:00,
2013-01-12 19:22:00,7.0,1.0,30.16,North,-999,0.0,-999.0,75,-99.99,,,-99.99,,2013-01-13 01:22:00,
2013-01-12 19:33:00,7.0,1.0,30.17,North,-999,0.0,-999.0,76,-99.99,,,-99.99,,2013-01-13 01:33:00,
2013-01-12 19:43:00,7.0,1.0,30.17,North,-999,0.0,-999.0,76,-99.99,,,-99.99,,2013-01-13 01:43:00,
2013-01-12 19:52:00,7.0,1.0,30.17,North,-999,0.0,-999.0,76,-99.99,,,-99.99,,2013-01-13 01:52:00,
2013-01-12 20:02:00,6.0,0.0,30.18,North,-999,0.0,-999.0,77,-99.99,,,-99.99,,2013-01-13 02:02:00,
2013-01-12 20:12:00,6.0,0.0,30.18,North,-999,0.0,-999.0,77,-99.99,,,-99.99,,2013-01-13 02:12:00,
2013-01-12 20:22:00,6.0,1.0,30.19,North,-999,0.0,-999.0,78,-99.99,,,-99.99,,2013-01-13 02:22:00,
2013-01-12 20:32:00,6.0,0.0,30.18,North,-999,0.0,-999.0,74,-99.99,,,-99.99,,2013-01-13 02:32:00,
2013-01-12 20:42:00,6.0,0.0,30.18,North,-999,0.0,-999.0,74,-99.99,,,-99.99,,2013-01-13 02:42:00,
2013-01-12 20:52:00,5.0,-1.0,30.19,North,-999,0.0,-999.0,74,-99.99,,,-99.99,,2013-01-13 02:52:00,
2013-01-12 21:02:00,5.0,-1.0,30.18,North,-999,0.0,-999.0,74,-99.99,,,-99.99,,2013-01-13 03:02:00,
2013-01-12 21:12:00,5.0,-1.0,30.18,North,-999,0.0,-999.0,74,-99.99,,,-99.99,,2013-01-13 03:12:00,
2013-01-12 21:22:00,5.0,-1.0,30.21,North,-999,0.0,-999.0,74,-99.99,,,-99.99,,2013-01-13 03:22:00,
2013-01-12 21:33:00,5.0,-1.0,30.21,North,-999,0.0,-999.0,74,-99.99,,,-99.99,,2013-01-13 03:33:00,
2013-01-12 21:42:00,5.0,-1.0,30.21,North,-999,0.0,-999.0,74,-99.99,,,-99.99,,2013-01-13 03:42:00,
2013-01-12 21:52:00,5.0,-1.0,30.21,North,-999,0.0,-999.0,74,-99.99,,,-99.99,,2013-01-13 03:52:00,
2013-01-12 22:02:00,4.0,-2.0,30.21,North,-999,0.0,-999.0,75,-99.99,,,-99.99,,2013-01-13 04:02:00,
2013-01-12 22:12:00,4.0,-2.0,30.21,North,-999,0.0,-999.0,75,-99.99,,,-99.99,,2013-01-13 04:12:00,
2013-01-12 22:22:00,4.0,-2.0,30.20,North,-999,0.0,-999.0,75,-99.99,,,-99.99,,2013-01-13 04:22:00,
2013-01-12 22:33:00,4.0,-2.0,30.21,North,-999,0.0,-999.0,75,-99.99,,,-99.99,,2013-01-13 04:33:00,
2013-01-12 22:42:00,4.0,-2.0,30.21,North,-999,0.0,-999.0,75,-99.99,,,-99.99,,2013-01-13 04:42:00,
2013-01-12 22:52:00,4.0,-2.0,30.21,North,-999,0.0,-999.0,76,-99.99,,,-99.99,,2013-01-13 04:52:00,
2013-01-12 23:03:00,4.0,-2.0,30.22,North,-999,0.0,-999.0,76,-99.99,,,-99.99,,2013-01-13 05:03:00,
2013-01-12 23:12:00,4.0,-2.0,30.22,North,-999,0.0,-999.0,76,-99.99,,,-99.99,,2013-01-13 05:12:00,
2013-01-12 23:22:00,3.0,-3.0,30.22,North,-999,0.0,-999.0,76,-99.99,,,-99.99,,2013-01-13 05:22:00,
2013-01-12 23:32:00,3.0,-3.0,30.21,North,-999,0.0,-999.0,76,-99.99,,,-99.99,,2013-01-13 05:32:00,
2013-01-12 23:42:00,3.0,-3.0,30.21,North,-999,0.0,-999.0,76,-99.99,,,-99.99,,2013-01-13 05:42:00,
2013-01-12 23:52:00,3.0,-3.0,30.21,North,-999,0.0,-999.0,76,-99.99,,,-99.99,,2013-01-13 05:52:00,